HAZ5219 ZSPD-ZGSZ
Flight info
| Callsign | HAZ5219 |
|---|---|
| Flight time | 1h 58m |
| Altitude | 40100 |
| Route | NXD81D NXD W131 AKDIM/K0904S1310 A470 DUBGO W134 ELNEX A599 PLT W19 ATKAV W20 SALIV R473 NOLON W90 POU W7 SAREX SAREX3 |
| Aircraft | A359/H-SDE2E3GHIJ3J4J5LM1ORWXY/LB1D1 |
Departure
| Time | 2026-04-12 09:38 |
|---|---|
| Airport | Shanghai Pudong International Airport (ZSPD) |
Arrival
| Time | 2026-04-12 11:37 |
|---|---|
| Airport | Shenzhen Bao'an International Airport (ZGSZ) |
| Time | Latitude | Longitude | Altitude | Speed | Heading |
|---|---|---|---|---|---|
| 2026-04-12 09:38 | 30.99732 | 121.82506 | 5833 ft | 261 kts | 219° |
| 2026-04-12 09:38 | 30.98593 | 121.80894 | 5898 ft | 256 kts | 246° |
| 2026-04-12 09:38 | 30.97997 | 121.78972 | 5904 ft | 256 kts | 253° |
| 2026-04-12 09:38 | 30.97647 | 121.77621 | 5904 ft | 257 kts | 253° |
| 2026-04-12 09:39 | 30.97390 | 121.76636 | 5922 ft | 257 kts | 253° |
| 2026-04-12 09:39 | 30.96863 | 121.74648 | 5905 ft | 257 kts | 253° |
| 2026-04-12 09:40 | 30.96383 | 121.72646 | 5898 ft | 257 kts | 259° |
| 2026-04-12 09:40 | 30.96377 | 121.70589 | 5884 ft | 254 kts | 278° |
| 2026-04-12 09:40 | 30.96733 | 121.68559 | 6099 ft | 258 kts | 281° |
| 2026-04-12 09:40 | 30.97127 | 121.66503 | 6678 ft | 260 kts | 281° |
| 2026-04-12 09:41 | 30.97515 | 121.64448 | 7386 ft | 260 kts | 280° |
| 2026-04-12 09:41 | 30.97901 | 121.62377 | 8066 ft | 262 kts | 279° |
| 2026-04-12 09:41 | 30.98284 | 121.60315 | 8728 ft | 265 kts | 279° |
| 2026-04-12 09:41 | 30.98678 | 121.58180 | 9416 ft | 268 kts | 279° |
| 2026-04-12 09:42 | 30.99066 | 121.56076 | 10043 ft | 271 kts | 279° |
| 2026-04-12 09:42 | 30.99468 | 121.53882 | 10363 ft | 285 kts | 279° |
| 2026-04-12 09:42 | 30.99893 | 121.51560 | 10630 ft | 300 kts | 279° |
| 2026-04-12 09:43 | 31.01285 | 121.44021 | 11695 ft | 327 kts | 280° |
| 2026-04-12 09:43 | 31.01766 | 121.41410 | 12170 ft | 331 kts | 280° |
| 2026-04-12 09:43 | 31.02250 | 121.38771 | 12679 ft | 334 kts | 280° |
| 2026-04-12 09:44 | 31.02739 | 121.36107 | 13189 ft | 337 kts | 280° |
| 2026-04-12 09:44 | 31.03230 | 121.33424 | 13702 ft | 340 kts | 280° |
| 2026-04-12 09:44 | 31.03725 | 121.30722 | 14160 ft | 342 kts | 280° |
| 2026-04-12 09:44 | 31.04222 | 121.28005 | 14661 ft | 343 kts | 280° |
| 2026-04-12 09:45 | 31.04720 | 121.25286 | 15192 ft | 342 kts | 280° |
| 2026-04-12 09:45 | 31.05215 | 121.22574 | 15720 ft | 342 kts | 281° |
| 2026-04-12 09:45 | 31.05412 | 121.21494 | 15912 ft | 342 kts | 281° |
| 2026-04-12 09:45 | 31.05589 | 121.20520 | 16078 ft | 342 kts | 281° |
| 2026-04-12 09:46 | 31.05980 | 121.18365 | 16461 ft | 343 kts | 281° |
| 2026-04-12 09:46 | 31.06288 | 121.16674 | 16758 ft | 343 kts | 281° |
| 2026-04-12 09:46 | 31.06520 | 121.15368 | 16987 ft | 343 kts | 280° |
| 2026-04-12 09:46 | 31.06727 | 121.13683 | 17274 ft | 343 kts | 274° |
| 2026-04-12 09:47 | 31.06686 | 121.11641 | 17625 ft | 344 kts | 263° |
| 2026-04-12 09:47 | 31.06495 | 121.10427 | 17843 ft | 344 kts | 258° |
| 2026-04-12 09:47 | 31.05896 | 121.07830 | 18273 ft | 346 kts | 256° |
| 2026-04-12 09:48 | 31.05228 | 121.05171 | 18659 ft | 347 kts | 255° |
| 2026-04-12 09:48 | 31.04549 | 121.02473 | 19073 ft | 347 kts | 255° |
| 2026-04-12 09:48 | 31.03871 | 120.99766 | 19484 ft | 348 kts | 255° |
| 2026-04-12 09:48 | 31.03197 | 120.97064 | 19877 ft | 348 kts | 255° |
| 2026-04-12 09:49 | 31.02521 | 120.94344 | 20284 ft | 349 kts | 255° |
| 2026-04-12 09:49 | 31.01843 | 120.91621 | 20636 ft | 351 kts | 255° |
| 2026-04-12 09:49 | 31.01162 | 120.88878 | 21043 ft | 352 kts | 255° |
| 2026-04-12 09:49 | 31.00478 | 120.86132 | 21457 ft | 353 kts | 254° |
| 2026-04-12 09:50 | 30.99797 | 120.83396 | 21897 ft | 350 kts | 254° |
| 2026-04-12 09:50 | 30.99122 | 120.80686 | 22469 ft | 346 kts | 254° |
| 2026-04-12 09:50 | 30.98451 | 120.77996 | 22868 ft | 347 kts | 254° |
| 2026-04-12 09:50 | 30.97774 | 120.75287 | 23217 ft | 348 kts | 253° |
| 2026-04-12 09:51 | 30.97095 | 120.72568 | 23553 ft | 350 kts | 253° |
| 2026-04-12 09:51 | 30.96416 | 120.69851 | 23853 ft | 350 kts | 253° |
| 2026-04-12 09:51 | 30.95731 | 120.67117 | 24144 ft | 352 kts | 253° |
| 2026-04-12 09:51 | 30.95046 | 120.64383 | 24427 ft | 353 kts | 253° |
| 2026-04-12 09:52 | 30.94356 | 120.61631 | 24724 ft | 354 kts | 253° |
| 2026-04-12 09:52 | 30.93663 | 120.58869 | 25015 ft | 355 kts | 253° |
| 2026-04-12 09:52 | 30.92969 | 120.56107 | 25303 ft | 357 kts | 253° |
| 2026-04-12 09:52 | 30.92269 | 120.53327 | 25611 ft | 358 kts | 253° |
| 2026-04-12 09:53 | 30.91569 | 120.50548 | 25920 ft | 359 kts | 253° |
| 2026-04-12 09:53 | 30.90785 | 120.47782 | 26229 ft | 360 kts | 250° |
| 2026-04-12 09:53 | 30.89701 | 120.45140 | 26538 ft | 363 kts | 243° |
| 2026-04-12 09:53 | 30.88270 | 120.42706 | 26851 ft | 368 kts | 235° |
| 2026-04-12 09:54 | 30.86494 | 120.40522 | 27123 ft | 375 kts | 227° |
| 2026-04-12 09:54 | 30.84458 | 120.38601 | 27450 ft | 380 kts | 223° |
| 2026-04-12 09:54 | 30.82317 | 120.36781 | 27783 ft | 382 kts | 222° |
| 2026-04-12 09:54 | 30.80131 | 120.35003 | 28096 ft | 384 kts | 221° |
| 2026-04-12 09:55 | 30.77930 | 120.33239 | 28407 ft | 386 kts | 221° |
| 2026-04-12 09:55 | 30.75713 | 120.31459 | 28719 ft | 387 kts | 221° |
| 2026-04-12 09:55 | 30.73501 | 120.29670 | 29044 ft | 389 kts | 222° |
| 2026-04-12 09:55 | 30.71276 | 120.27859 | 29353 ft | 391 kts | 222° |
| 2026-04-12 09:56 | 30.69045 | 120.26034 | 29672 ft | 393 kts | 222° |
| 2026-04-12 09:56 | 30.66813 | 120.24203 | 29957 ft | 395 kts | 222° |
| 2026-04-12 09:56 | 30.64587 | 120.22374 | 30141 ft | 399 kts | 222° |
| 2026-04-12 09:56 | 30.62287 | 120.20486 | 30380 ft | 402 kts | 222° |
| 2026-04-12 09:57 | 30.59996 | 120.18608 | 30660 ft | 404 kts | 222° |
| 2026-04-12 09:57 | 30.57722 | 120.16746 | 30934 ft | 406 kts | 222° |
| 2026-04-12 09:57 | 30.55381 | 120.14831 | 31225 ft | 408 kts | 222° |
| 2026-04-12 09:57 | 30.53080 | 120.12949 | 31476 ft | 411 kts | 222° |
| 2026-04-12 09:58 | 30.50711 | 120.11013 | 31758 ft | 413 kts | 222° |
| 2026-04-12 09:58 | 30.48354 | 120.09090 | 32054 ft | 414 kts | 222° |
| 2026-04-12 09:58 | 30.46020 | 120.07186 | 32277 ft | 417 kts | 221° |
| 2026-04-12 09:58 | 30.43577 | 120.05269 | 32487 ft | 423 kts | 218° |
| 2026-04-12 09:59 | 30.41074 | 120.03527 | 32732 ft | 426 kts | 218° |
| 2026-04-12 09:59 | 30.38478 | 120.01769 | 32987 ft | 429 kts | 217° |
| 2026-04-12 09:59 | 30.35919 | 120.00059 | 33217 ft | 431 kts | 217° |
| 2026-04-12 09:59 | 30.33307 | 119.98326 | 33450 ft | 433 kts | 217° |
| 2026-04-12 10:00 | 30.30688 | 119.96590 | 33694 ft | 435 kts | 217° |
| 2026-04-12 10:00 | 30.28055 | 119.94845 | 33925 ft | 437 kts | 217° |
| 2026-04-12 10:00 | 30.25416 | 119.93094 | 34120 ft | 439 kts | 217° |
| 2026-04-12 10:00 | 30.22755 | 119.91328 | 34311 ft | 441 kts | 217° |
| 2026-04-12 10:01 | 30.20081 | 119.89552 | 34493 ft | 444 kts | 217° |
| 2026-04-12 10:01 | 30.17399 | 119.87772 | 34667 ft | 446 kts | 217° |
| 2026-04-12 10:01 | 30.14703 | 119.85985 | 34982 ft | 446 kts | 217° |
| 2026-04-12 10:01 | 30.12020 | 119.84209 | 35276 ft | 445 kts | 217° |
| 2026-04-12 10:02 | 30.09332 | 119.82429 | 35579 ft | 446 kts | 217° |
| 2026-04-12 10:02 | 30.06637 | 119.80646 | 35889 ft | 446 kts | 217° |
| 2026-04-12 10:02 | 30.03948 | 119.78866 | 36207 ft | 444 kts | 216° |
| 2026-04-12 10:02 | 30.01276 | 119.77077 | 36436 ft | 446 kts | 217° |
| 2026-04-12 10:03 | 29.98592 | 119.75268 | 36705 ft | 446 kts | 217° |
| 2026-04-12 10:03 | 29.95917 | 119.73463 | 37008 ft | 446 kts | 217° |
| 2026-04-12 10:03 | 29.93234 | 119.71655 | 37323 ft | 446 kts | 217° |
| 2026-04-12 10:03 | 29.90551 | 119.69850 | 37615 ft | 446 kts | 216° |
| 2026-04-12 10:04 | 29.87874 | 119.68052 | 37887 ft | 446 kts | 216° |
| 2026-04-12 10:04 | 29.85186 | 119.66249 | 38182 ft | 447 kts | 216° |
| 2026-04-12 10:04 | 29.82544 | 119.64394 | 38450 ft | 444 kts | 219° |
| 2026-04-12 10:04 | 29.79981 | 119.62404 | 38701 ft | 443 kts | 220° |
| 2026-04-12 10:05 | 29.77461 | 119.60365 | 38933 ft | 443 kts | 221° |
| 2026-04-12 10:05 | 29.74946 | 119.58318 | 39203 ft | 443 kts | 220° |
| 2026-04-12 10:05 | 29.72425 | 119.56285 | 39467 ft | 441 kts | 220° |
| 2026-04-12 10:05 | 29.69905 | 119.54277 | 39682 ft | 442 kts | 220° |
| 2026-04-12 10:06 | 29.67363 | 119.52273 | 39890 ft | 443 kts | 219° |
| 2026-04-12 10:06 | 29.62531 | 119.48003 | 39963 ft | 437 kts | 229° |
| 2026-04-12 10:07 | 29.58363 | 119.42953 | 39996 ft | 435 kts | 231° |
| 2026-04-12 10:07 | 29.54317 | 119.37791 | 39997 ft | 435 kts | 232° |
| 2026-04-12 10:08 | 29.50291 | 119.32621 | 39994 ft | 435 kts | 232° |
| 2026-04-12 10:08 | 29.46245 | 119.27457 | 39993 ft | 435 kts | 231° |
| 2026-04-12 10:09 | 29.42189 | 119.22303 | 39982 ft | 435 kts | 231° |
| 2026-04-12 10:09 | 29.38119 | 119.17140 | 39990 ft | 436 kts | 231° |
| 2026-04-12 10:10 | 29.34053 | 119.11990 | 39991 ft | 436 kts | 231° |
| 2026-04-12 10:10 | 29.29969 | 119.06837 | 39990 ft | 436 kts | 231° |
| 2026-04-12 10:11 | 29.25888 | 119.01700 | 39993 ft | 436 kts | 231° |
| 2026-04-12 10:11 | 29.21808 | 118.96567 | 39988 ft | 436 kts | 231° |
| 2026-04-12 10:12 | 29.17712 | 118.91419 | 39996 ft | 437 kts | 231° |
| 2026-04-12 10:12 | 29.13617 | 118.86277 | 39994 ft | 437 kts | 231° |
| 2026-04-12 10:13 | 29.09517 | 118.81138 | 39993 ft | 437 kts | 231° |
| 2026-04-12 10:13 | 29.05417 | 118.76005 | 39993 ft | 437 kts | 231° |
| 2026-04-12 10:14 | 29.01313 | 118.70873 | 39983 ft | 438 kts | 231° |
| 2026-04-12 10:14 | 28.97214 | 118.65752 | 40007 ft | 440 kts | 231° |
| 2026-04-12 10:15 | 28.93088 | 118.60605 | 39995 ft | 439 kts | 231° |
| 2026-04-12 10:15 | 28.88964 | 118.55468 | 39990 ft | 439 kts | 231° |
| 2026-04-12 10:16 | 28.85505 | 118.51164 | 39990 ft | 439 kts | 231° |
| 2026-04-12 10:16 | 28.81375 | 118.46033 | 39982 ft | 440 kts | 231° |
| 2026-04-12 10:17 | 28.77231 | 118.40891 | 39985 ft | 441 kts | 231° |
| 2026-04-12 10:17 | 28.73084 | 118.35747 | 39990 ft | 441 kts | 231° |
| 2026-04-12 10:18 | 28.68932 | 118.30607 | 39985 ft | 441 kts | 231° |
| 2026-04-12 10:18 | 28.64797 | 118.25493 | 39992 ft | 441 kts | 231° |
| 2026-04-12 10:19 | 28.60636 | 118.20354 | 39975 ft | 442 kts | 230° |
| 2026-04-12 10:19 | 28.56470 | 118.15215 | 39977 ft | 442 kts | 230° |
| 2026-04-12 10:20 | 28.52288 | 118.10065 | 39975 ft | 442 kts | 230° |
| 2026-04-12 10:20 | 28.48119 | 118.04935 | 39994 ft | 442 kts | 230° |
| 2026-04-12 10:21 | 28.43945 | 117.99805 | 39980 ft | 442 kts | 230° |
| 2026-04-12 10:21 | 28.39749 | 117.94675 | 39988 ft | 443 kts | 230° |
| 2026-04-12 10:22 | 28.35472 | 117.89622 | 39989 ft | 444 kts | 229° |
| 2026-04-12 10:22 | 28.31173 | 117.84588 | 39990 ft | 444 kts | 229° |
| 2026-04-12 10:23 | 28.26883 | 117.79547 | 39993 ft | 444 kts | 229° |
| 2026-04-12 10:23 | 28.22599 | 117.74501 | 39991 ft | 444 kts | 229° |
| 2026-04-12 10:24 | 28.18307 | 117.69450 | 39991 ft | 444 kts | 229° |
| 2026-04-12 10:24 | 28.14048 | 117.64445 | 39991 ft | 444 kts | 229° |
| 2026-04-12 10:25 | 28.09759 | 117.59409 | 39990 ft | 444 kts | 229° |
| 2026-04-12 10:25 | 28.05467 | 117.54379 | 39988 ft | 444 kts | 229° |
| 2026-04-12 10:26 | 28.01175 | 117.49357 | 39992 ft | 444 kts | 229° |
| 2026-04-12 10:26 | 27.96868 | 117.44322 | 39996 ft | 445 kts | 229° |
| 2026-04-12 10:27 | 27.92564 | 117.39293 | 39992 ft | 445 kts | 229° |
| 2026-04-12 10:27 | 27.88252 | 117.34262 | 39994 ft | 446 kts | 229° |
| 2026-04-12 10:28 | 27.83939 | 117.29236 | 39989 ft | 445 kts | 229° |
| 2026-04-12 10:28 | 27.79627 | 117.24220 | 39980 ft | 445 kts | 229° |
| 2026-04-12 10:29 | 27.75300 | 117.19193 | 39998 ft | 446 kts | 229° |
| 2026-04-12 10:29 | 27.70968 | 117.14161 | 39996 ft | 447 kts | 229° |
| 2026-04-12 10:30 | 27.66629 | 117.09131 | 39983 ft | 447 kts | 229° |
| 2026-04-12 10:30 | 27.62291 | 117.04107 | 39985 ft | 447 kts | 229° |
| 2026-04-12 10:31 | 27.57980 | 116.99121 | 39972 ft | 447 kts | 229° |
| 2026-04-12 10:31 | 27.53638 | 116.94105 | 39979 ft | 447 kts | 229° |
| 2026-04-12 10:32 | 27.49301 | 116.89098 | 39981 ft | 447 kts | 229° |
| 2026-04-12 10:32 | 27.44998 | 116.84051 | 39976 ft | 447 kts | 229° |
| 2026-04-12 10:33 | 27.40698 | 116.78998 | 39978 ft | 447 kts | 229° |
| 2026-04-12 10:33 | 27.36390 | 116.73959 | 39974 ft | 447 kts | 229° |
| 2026-04-12 10:34 | 27.32079 | 116.68931 | 39976 ft | 446 kts | 229° |
| 2026-04-12 10:34 | 27.27774 | 116.63915 | 39980 ft | 445 kts | 229° |
| 2026-04-12 10:35 | 27.23469 | 116.58906 | 39976 ft | 446 kts | 229° |
| 2026-04-12 10:35 | 27.19168 | 116.53896 | 39978 ft | 445 kts | 230° |
| 2026-04-12 10:36 | 27.14964 | 116.48809 | 39974 ft | 444 kts | 230° |
| 2026-04-12 10:36 | 27.10797 | 116.43710 | 39976 ft | 442 kts | 230° |
| 2026-04-12 10:37 | 27.06628 | 116.38643 | 39975 ft | 442 kts | 230° |
| 2026-04-12 10:37 | 27.02440 | 116.33583 | 39975 ft | 442 kts | 230° |
| 2026-04-12 10:38 | 26.98252 | 116.28532 | 39974 ft | 442 kts | 230° |
| 2026-04-12 10:38 | 26.94059 | 116.23482 | 39961 ft | 442 kts | 230° |
| 2026-04-12 10:39 | 26.89869 | 116.18441 | 39964 ft | 442 kts | 230° |
| 2026-04-12 10:39 | 26.85721 | 116.13383 | 39968 ft | 441 kts | 231° |
| 2026-04-12 10:40 | 26.81573 | 116.08317 | 39967 ft | 442 kts | 231° |
| 2026-04-12 10:40 | 26.77415 | 116.03255 | 39967 ft | 442 kts | 230° |
| 2026-04-12 10:41 | 26.73246 | 115.98194 | 39970 ft | 442 kts | 230° |
| 2026-04-12 10:41 | 26.69078 | 115.93141 | 39967 ft | 443 kts | 230° |
| 2026-04-12 10:42 | 26.64899 | 115.88082 | 39961 ft | 443 kts | 230° |
| 2026-04-12 10:42 | 26.60717 | 115.83024 | 39958 ft | 443 kts | 230° |
| 2026-04-12 10:43 | 26.54466 | 115.75473 | 39952 ft | 443 kts | 230° |
| 2026-04-12 10:43 | 26.50280 | 115.70425 | 39951 ft | 443 kts | 230° |
| 2026-04-12 10:44 | 26.46088 | 115.65375 | 39950 ft | 444 kts | 230° |
| 2026-04-12 10:44 | 26.41878 | 115.60310 | 39951 ft | 444 kts | 230° |
| 2026-04-12 10:45 | 26.37676 | 115.55261 | 39950 ft | 444 kts | 230° |
| 2026-04-12 10:45 | 26.33478 | 115.50222 | 39946 ft | 444 kts | 230° |
| 2026-04-12 10:46 | 26.29278 | 115.45185 | 39945 ft | 444 kts | 230° |
| 2026-04-12 10:46 | 26.25074 | 115.40150 | 39936 ft | 444 kts | 230° |
| 2026-04-12 10:47 | 26.20861 | 115.35110 | 39941 ft | 444 kts | 230° |
| 2026-04-12 10:47 | 26.16654 | 115.30082 | 39939 ft | 444 kts | 230° |
| 2026-04-12 10:48 | 26.12437 | 115.25049 | 39938 ft | 445 kts | 230° |
| 2026-04-12 10:48 | 26.08215 | 115.20017 | 39939 ft | 445 kts | 230° |
| 2026-04-12 10:49 | 26.03991 | 115.14987 | 39934 ft | 445 kts | 230° |
| 2026-04-12 10:49 | 25.99787 | 115.09986 | 39935 ft | 445 kts | 230° |
| 2026-04-12 10:50 | 25.95560 | 115.04963 | 39935 ft | 445 kts | 230° |
| 2026-04-12 10:50 | 25.91331 | 114.99944 | 39944 ft | 445 kts | 230° |
| 2026-04-12 10:51 | 25.87106 | 114.94936 | 39931 ft | 444 kts | 230° |
| 2026-04-12 10:51 | 25.82622 | 114.90157 | 39933 ft | 447 kts | 221° |
| 2026-04-12 10:52 | 25.77175 | 114.86793 | 39932 ft | 458 kts | 205° |
| 2026-04-12 10:52 | 25.70979 | 114.84935 | 39928 ft | 464 kts | 198° |
| 2026-04-12 10:53 | 25.64666 | 114.83409 | 39931 ft | 465 kts | 197° |
| 2026-04-12 10:53 | 25.58349 | 114.81899 | 39932 ft | 464 kts | 197° |
| 2026-04-12 10:54 | 25.52042 | 114.80357 | 39927 ft | 464 kts | 198° |
| 2026-04-12 10:54 | 25.45728 | 114.78794 | 39932 ft | 464 kts | 198° |
| 2026-04-12 10:55 | 25.39424 | 114.77232 | 39932 ft | 464 kts | 198° |
| 2026-04-12 10:55 | 25.33117 | 114.75673 | 39931 ft | 465 kts | 198° |
| 2026-04-12 10:56 | 25.26801 | 114.74114 | 39921 ft | 464 kts | 198° |
| 2026-04-12 10:56 | 25.20530 | 114.72568 | 39932 ft | 465 kts | 198° |
| 2026-04-12 10:57 | 25.14185 | 114.71006 | 39936 ft | 464 kts | 198° |
| 2026-04-12 10:57 | 25.07916 | 114.69463 | 39937 ft | 464 kts | 198° |
| 2026-04-12 10:58 | 25.01613 | 114.67914 | 39941 ft | 464 kts | 198° |
| 2026-04-12 10:58 | 24.95303 | 114.66366 | 39938 ft | 464 kts | 198° |
| 2026-04-12 10:59 | 24.89001 | 114.64820 | 39943 ft | 464 kts | 198° |
| 2026-04-12 10:59 | 24.82702 | 114.63276 | 39948 ft | 464 kts | 198° |
| 2026-04-12 11:00 | 24.76405 | 114.61729 | 39957 ft | 464 kts | 198° |
| 2026-04-12 11:00 | 24.70212 | 114.59883 | 39951 ft | 458 kts | 206° |
| 2026-04-12 11:01 | 24.64570 | 114.56755 | 39952 ft | 454 kts | 213° |
| 2026-04-12 11:01 | 24.59096 | 114.53308 | 39958 ft | 453 kts | 214° |
| 2026-04-12 11:02 | 24.53642 | 114.49825 | 39960 ft | 454 kts | 214° |
| 2026-04-12 11:02 | 24.48203 | 114.46376 | 39954 ft | 454 kts | 214° |
| 2026-04-12 11:03 | 24.43148 | 114.42325 | 39956 ft | 448 kts | 227° |
| 2026-04-12 11:03 | 24.39376 | 114.36965 | 39957 ft | 444 kts | 242° |
| 2026-04-12 11:04 | 24.36866 | 114.30793 | 39955 ft | 443 kts | 248° |
| 2026-04-12 11:04 | 24.34599 | 114.24508 | 39958 ft | 443 kts | 249° |
| 2026-04-12 11:05 | 24.32333 | 114.18210 | 39958 ft | 444 kts | 249° |
| 2026-04-12 11:05 | 24.29960 | 114.11970 | 39958 ft | 444 kts | 244° |
| 2026-04-12 11:06 | 24.27173 | 114.07257 | 39959 ft | 446 kts | 232° |
| 2026-04-12 11:06 | 24.22518 | 114.02720 | 39954 ft | 452 kts | 217° |
| 2026-04-12 11:07 | 24.17226 | 113.98961 | 39951 ft | 455 kts | 215° |
| 2026-04-12 11:07 | 24.11871 | 113.95267 | 39949 ft | 454 kts | 218° |
| 2026-04-12 11:08 | 24.07013 | 113.90906 | 39957 ft | 451 kts | 224° |
| 2026-04-12 11:08 | 24.02328 | 113.86326 | 39951 ft | 451 kts | 224° |
| 2026-04-12 11:09 | 23.97679 | 113.81724 | 39945 ft | 451 kts | 224° |
| 2026-04-12 11:09 | 23.93019 | 113.77129 | 39950 ft | 451 kts | 224° |
| 2026-04-12 11:10 | 23.90665 | 113.74816 | 39952 ft | 452 kts | 224° |
| 2026-04-12 11:11 | 23.88250 | 113.72446 | 39949 ft | 452 kts | 224° |
| 2026-04-12 11:12 | 23.83568 | 113.67861 | 39949 ft | 452 kts | 224° |
| 2026-04-12 11:12 | 23.81240 | 113.65583 | 39832 ft | 449 kts | 224° |
| 2026-04-12 11:12 | 23.78908 | 113.63302 | 39608 ft | 450 kts | 224° |
| 2026-04-12 11:13 | 23.76574 | 113.61019 | 39208 ft | 449 kts | 224° |
| 2026-04-12 11:13 | 23.74254 | 113.58751 | 38591 ft | 448 kts | 224° |
| 2026-04-12 11:13 | 23.71927 | 113.56477 | 37850 ft | 449 kts | 224° |
| 2026-04-12 11:13 | 23.69604 | 113.54207 | 37137 ft | 448 kts | 224° |
| 2026-04-12 11:14 | 23.67288 | 113.51945 | 36429 ft | 448 kts | 224° |
| 2026-04-12 11:14 | 23.64960 | 113.49674 | 35704 ft | 448 kts | 224° |
| 2026-04-12 11:14 | 23.62638 | 113.47409 | 34951 ft | 449 kts | 224° |
| 2026-04-12 11:14 | 23.60301 | 113.45130 | 34175 ft | 451 kts | 224° |
| 2026-04-12 11:15 | 23.57946 | 113.42835 | 33234 ft | 455 kts | 224° |
| 2026-04-12 11:15 | 23.55566 | 113.40547 | 32273 ft | 459 kts | 222° |
| 2026-04-12 11:15 | 23.52903 | 113.38573 | 31288 ft | 468 kts | 212° |
| 2026-04-12 11:15 | 23.49920 | 113.37145 | 30565 ft | 470 kts | 205° |
| 2026-04-12 11:16 | 23.46863 | 113.35892 | 29878 ft | 468 kts | 204° |
| 2026-04-12 11:16 | 23.43796 | 113.34715 | 29115 ft | 465 kts | 203° |
| 2026-04-12 11:16 | 23.40748 | 113.33578 | 28419 ft | 461 kts | 203° |
| 2026-04-12 11:16 | 23.37719 | 113.32455 | 27722 ft | 457 kts | 203° |
| 2026-04-12 11:17 | 23.34728 | 113.31341 | 27037 ft | 453 kts | 203° |
| 2026-04-12 11:17 | 23.31754 | 113.30226 | 26358 ft | 450 kts | 204° |
| 2026-04-12 11:17 | 23.28816 | 113.29116 | 25671 ft | 446 kts | 204° |
| 2026-04-12 11:17 | 23.25889 | 113.28006 | 25003 ft | 443 kts | 204° |
| 2026-04-12 11:18 | 23.22982 | 113.26902 | 24320 ft | 441 kts | 204° |
| 2026-04-12 11:18 | 23.20101 | 113.25808 | 23626 ft | 438 kts | 204° |
| 2026-04-12 11:18 | 23.17227 | 113.24716 | 22873 ft | 436 kts | 204° |
| 2026-04-12 11:18 | 23.14383 | 113.23637 | 22154 ft | 432 kts | 204° |
| 2026-04-12 11:19 | 23.11558 | 113.22568 | 21450 ft | 427 kts | 204° |
| 2026-04-12 11:19 | 23.08760 | 113.21513 | 20762 ft | 423 kts | 204° |
| 2026-04-12 11:19 | 23.05894 | 113.20777 | 20041 ft | 428 kts | 192° |
| 2026-04-12 11:19 | 23.02896 | 113.20826 | 19289 ft | 437 kts | 176° |
| 2026-04-12 11:20 | 22.99984 | 113.21840 | 18526 ft | 447 kts | 159° |
| 2026-04-12 11:20 | 22.97405 | 113.23784 | 17702 ft | 457 kts | 141° |
| 2026-04-12 11:20 | 22.95429 | 113.26500 | 16902 ft | 461 kts | 123° |
| 2026-04-12 11:20 | 22.94250 | 113.29721 | 16186 ft | 461 kts | 105° |
| 2026-04-12 11:21 | 22.93611 | 113.33116 | 15418 ft | 456 kts | 104° |
| 2026-04-12 11:21 | 22.92771 | 113.36420 | 14587 ft | 452 kts | 110° |
| 2026-04-12 11:21 | 22.91718 | 113.39605 | 13878 ft | 445 kts | 114° |
| 2026-04-12 11:21 | 22.90522 | 113.42681 | 13103 ft | 439 kts | 117° |
| 2026-04-12 11:22 | 22.88996 | 113.45471 | 12291 ft | 425 kts | 134° |
| 2026-04-12 11:22 | 22.86831 | 113.47535 | 11571 ft | 406 kts | 153° |
| 2026-04-12 11:22 | 22.84288 | 113.48606 | 11168 ft | 380 kts | 174° |
| 2026-04-12 11:22 | 22.81774 | 113.48606 | 11065 ft | 349 kts | 192° |
| 2026-04-12 11:23 | 22.79452 | 113.48170 | 10969 ft | 328 kts | 193° |
| 2026-04-12 11:23 | 22.77282 | 113.47815 | 10873 ft | 311 kts | 192° |
| 2026-04-12 11:23 | 22.75199 | 113.47545 | 10782 ft | 294 kts | 190° |
| 2026-04-12 11:23 | 22.73212 | 113.47338 | 10694 ft | 279 kts | 189° |
| 2026-04-12 11:24 | 22.71311 | 113.47155 | 10439 ft | 271 kts | 189° |
| 2026-04-12 11:24 | 22.69415 | 113.46984 | 10081 ft | 269 kts | 189° |
| 2026-04-12 11:24 | 22.67575 | 113.46829 | 9743 ft | 272 kts | 188° |
| 2026-04-12 11:24 | 22.65661 | 113.46676 | 9361 ft | 279 kts | 188° |
| 2026-04-12 11:25 | 22.63716 | 113.46783 | 8983 ft | 284 kts | 171° |
| 2026-04-12 11:25 | 22.61933 | 113.47739 | 8635 ft | 292 kts | 143° |
| 2026-04-12 11:25 | 22.60767 | 113.49506 | 8507 ft | 289 kts | 116° |
| 2026-04-12 11:25 | 22.60462 | 113.51623 | 8395 ft | 284 kts | 88° |
| 2026-04-12 11:26 | 22.60672 | 113.53691 | 8291 ft | 271 kts | 85° |
| 2026-04-12 11:26 | 22.61283 | 113.55572 | 8128 ft | 264 kts | 54° |
| 2026-04-12 11:26 | 22.62686 | 113.56763 | 7879 ft | 255 kts | 16° |
| 2026-04-12 11:26 | 22.64414 | 113.56965 | 7643 ft | 249 kts | 353° |
| 2026-04-12 11:27 | 22.66157 | 113.56921 | 7414 ft | 251 kts | 354° |
| 2026-04-12 11:27 | 22.67907 | 113.56909 | 7174 ft | 252 kts | 355° |
| 2026-04-12 11:27 | 22.69655 | 113.56928 | 6933 ft | 251 kts | 356° |
| 2026-04-12 11:27 | 22.71391 | 113.56963 | 6695 ft | 249 kts | 356° |
| 2026-04-12 11:28 | 22.73127 | 113.57009 | 6453 ft | 249 kts | 356° |
| 2026-04-12 11:28 | 22.74855 | 113.57064 | 6203 ft | 248 kts | 356° |
| 2026-04-12 11:28 | 22.76580 | 113.57112 | 5951 ft | 248 kts | 356° |
| 2026-04-12 11:28 | 22.78302 | 113.57158 | 5714 ft | 248 kts | 356° |
| 2026-04-12 11:29 | 22.80022 | 113.57206 | 5470 ft | 247 kts | 357° |
| 2026-04-12 11:29 | 22.81736 | 113.57304 | 5218 ft | 248 kts | 4° |
| 2026-04-12 11:29 | 22.83320 | 113.58037 | 4983 ft | 253 kts | 40° |
| 2026-04-12 11:29 | 22.84348 | 113.59563 | 4741 ft | 251 kts | 64° |
| 2026-04-12 11:30 | 22.85130 | 113.61252 | 4481 ft | 251 kts | 66° |
| 2026-04-12 11:30 | 22.85892 | 113.62925 | 4232 ft | 249 kts | 66° |
| 2026-04-12 11:30 | 22.86506 | 113.64660 | 4023 ft | 238 kts | 85° |
| 2026-04-12 11:30 | 22.86313 | 113.66343 | 3804 ft | 220 kts | 121° |
| 2026-04-12 11:31 | 22.85356 | 113.67551 | 3612 ft | 208 kts | 150° |
| 2026-04-12 11:31 | 22.84119 | 113.68299 | 3412 ft | 205 kts | 157° |
| 2026-04-12 11:31 | 22.82843 | 113.68987 | 3237 ft | 203 kts | 158° |
| 2026-04-12 11:31 | 22.81598 | 113.69661 | 3168 ft | 192 kts | 157° |
| 2026-04-12 11:32 | 22.80456 | 113.70292 | 3104 ft | 181 kts | 157° |
| 2026-04-12 11:32 | 22.79359 | 113.70889 | 3011 ft | 173 kts | 158° |
| 2026-04-12 11:32 | 22.78294 | 113.71456 | 2827 ft | 168 kts | 158° |
| 2026-04-12 11:32 | 22.77256 | 113.72021 | 2595 ft | 167 kts | 157° |
| 2026-04-12 11:33 | 22.76231 | 113.72587 | 2356 ft | 162 kts | 156° |
| 2026-04-12 11:33 | 22.75260 | 113.73119 | 2150 ft | 151 kts | 156° |
| 2026-04-12 11:33 | 22.74339 | 113.73623 | 1955 ft | 147 kts | 156° |
| 2026-04-12 11:33 | 22.73460 | 113.74105 | 1776 ft | 135 kts | 156° |
| 2026-04-12 11:34 | 22.72645 | 113.74551 | 1609 ft | 128 kts | 156° |
| 2026-04-12 11:34 | 22.71885 | 113.74968 | 1423 ft | 117 kts | 157° |
| 2026-04-12 11:34 | 22.71173 | 113.75358 | 1301 ft | 115 kts | 155° |
| 2026-04-12 11:34 | 22.70446 | 113.75756 | 1136 ft | 119 kts | 156° |
| 2026-04-12 11:35 | 22.69704 | 113.76163 | 984 ft | 119 kts | 158° |
| 2026-04-12 11:35 | 22.68955 | 113.76558 | 825 ft | 120 kts | 156° |
| 2026-04-12 11:35 | 22.68207 | 113.76965 | 674 ft | 121 kts | 154° |
| 2026-04-12 11:35 | 22.67471 | 113.77383 | 489 ft | 119 kts | 154° |
| 2026-04-12 11:36 | 22.66726 | 113.77785 | 363 ft | 121 kts | 153° |
| 2026-04-12 11:36 | 22.65967 | 113.78202 | 239 ft | 123 kts | 157° |
| 2026-04-12 11:36 | 22.65230 | 113.78607 | 48 ft | 119 kts | 154° |
| 2026-04-12 11:36 | 22.64540 | 113.78987 | 30 ft | 102 kts | 154° |
| 2026-04-12 11:37 | 22.64101 | 113.79229 | 31 ft | 42 kts | 153° |
| 2026-04-12 11:37 | 22.63923 | 113.79346 | 32 ft | 25 kts | 136° |
| 2026-04-12 11:37 | 22.63818 | 113.79497 | 30 ft | 26 kts | 124° |
| 2026-04-12 11:37 | 22.63746 | 113.79644 | 30 ft | 17 kts | 90° |
| 2026-04-12 11:38 | 22.63753 | 113.79740 | 30 ft | 5 kts | 123° |
| 2026-04-12 11:38 | 22.63676 | 113.79784 | 29 ft | 30 kts | 152° |
| 2026-04-12 11:38 | 22.63433 | 113.79918 | 29 ft | 42 kts | 152° |
| 2026-04-12 11:38 | 22.63187 | 113.80052 | 30 ft | 35 kts | 154° |
| 2026-04-12 11:39 | 22.63069 | 113.80120 | 30 ft | 9 kts | 135° |
| 2026-04-12 11:39 | 22.63072 | 113.80180 | 30 ft | 9 kts | 48° |
| 2026-04-12 11:39 | 22.63093 | 113.80205 | 30 ft | 5 kts | 46° |
| 2026-04-12 11:39 | 22.63110 | 113.80222 | 29 ft | 0 kts | 43° |